createdAt,value
2022-12-03T00:00:12.603Z,18.13
2022-12-03T00:02:41.381Z,14.60
2022-12-03T00:05:11.080Z,18.38
2022-12-03T00:07:39.043Z,16.08
2022-12-03T00:10:08.288Z,19.83
2022-12-03T00:12:36.169Z,14.93
2022-12-03T00:15:04.375Z,16.85
2022-12-03T00:17:33.435Z,15.55
2022-12-03T00:20:01.439Z,15.30
2022-12-03T00:22:30.679Z,15.38
2022-12-03T00:24:58.560Z,14.93
2022-12-03T00:27:28.163Z,16.10
2022-12-03T00:29:56.123Z,14.70
2022-12-03T00:32:24.026Z,16.98
2022-12-03T00:34:52.153Z,15.77
2022-12-03T00:37:20.280Z,15.82
2022-12-03T00:39:49.502Z,14.90
2022-12-03T00:42:17.345Z,15.70
2022-12-03T00:44:45.245Z,14.57
2022-12-03T00:47:13.175Z,15.77
2022-12-03T00:49:41.305Z,15.80
2022-12-03T00:52:09.206Z,14.73
2022-12-03T00:54:37.075Z,15.00
2022-12-03T00:57:06.321Z,15.75
2022-12-03T00:59:34.186Z,13.40
2022-12-03T01:02:02.270Z,15.23
2022-12-03T01:04:30.220Z,15.38
2022-12-03T01:06:58.084Z,16.75
2022-12-03T01:09:26.010Z,17.60
2022-12-03T01:11:53.986Z,14.13
2022-12-03T01:14:23.391Z,16.92
2022-12-03T01:16:51.403Z,16.10
2022-12-03T01:19:19.523Z,15.32
2022-12-03T01:21:48.573Z,15.93
2022-12-03T01:24:16.486Z,15.15
2022-12-03T01:26:44.428Z,16.63
2022-12-03T01:29:12.320Z,15.70
2022-12-03T01:31:59.061Z,16.17
2022-12-03T01:34:26.951Z,15.10
2022-12-03T01:36:54.811Z,15.38
2022-12-03T01:39:22.698Z,16.42
2022-12-03T01:41:50.936Z,14.90
2022-12-03T01:44:20.047Z,16.30
2022-12-03T01:46:49.317Z,16.13
2022-12-03T01:49:19.610Z,14.98
2022-12-03T01:51:47.588Z,16.02
2022-12-03T01:54:17.145Z,14.85
2022-12-03T01:56:45.333Z,14.68
2022-12-03T01:59:15.771Z,14.00
2022-12-03T02:01:43.686Z,14.95
2022-12-03T02:04:15.067Z,14.77
2022-12-03T02:06:43.122Z,13.70
2022-12-03T02:09:11.579Z,15.52
2022-12-03T02:11:40.858Z,15.38
2022-12-03T02:14:11.393Z,16.13
2022-12-03T02:16:39.576Z,14.65
2022-12-03T02:19:09.702Z,14.82
2022-12-03T02:21:42.185Z,15.77
2022-12-03T02:24:13.279Z,14.82
2022-12-03T02:26:42.679Z,15.25
2022-12-03T02:29:10.501Z,14.43
2022-12-03T02:31:38.447Z,15.30
2022-12-03T02:34:07.081Z,11.32
2022-12-03T02:36:34.944Z,14.30
2022-12-03T02:39:02.799Z,14.98
2022-12-03T02:41:48.228Z,14.30
2022-12-03T02:44:17.450Z,14.77
2022-12-03T02:46:45.345Z,15.10
2022-12-03T02:49:13.540Z,13.25
2022-12-03T02:51:41.423Z,14.48
2022-12-03T02:54:09.294Z,14.70
2022-12-03T02:56:37.197Z,13.43
2022-12-03T02:59:05.126Z,14.10
2022-12-03T03:01:35.125Z,14.70
2022-12-03T03:04:03.269Z,13.30
2022-12-03T03:06:31.135Z,14.02
2022-12-03T03:08:59.005Z,15.95
2022-12-03T03:11:26.872Z,14.35
2022-12-03T03:13:54.763Z,12.63
2022-12-03T03:16:22.702Z,13.50
2022-12-03T03:18:52.009Z,14.13
2022-12-03T03:21:20.122Z,13.68
2022-12-03T03:23:47.994Z,13.23
2022-12-03T03:26:16.660Z,13.23
2022-12-03T03:28:46.622Z,13.02
2022-12-03T03:31:15.478Z,13.43
2022-12-03T03:33:44.119Z,12.80
2022-12-03T03:36:13.346Z,12.70
2022-12-03T03:38:41.718Z,13.90
2022-12-03T03:41:09.596Z,13.57
2022-12-03T03:43:38.384Z,13.43
2022-12-03T03:46:06.554Z,11.88
2022-12-03T03:48:35.094Z,12.52
2022-12-03T03:51:03.550Z,13.13
2022-12-03T03:53:32.745Z,12.05
2022-12-03T03:56:00.635Z,12.32
2022-12-03T03:58:28.480Z,13.43
2022-12-03T04:00:56.376Z,12.20
2022-12-03T04:03:24.229Z,12.48
2022-12-03T04:05:52.132Z,11.90
2022-12-03T04:08:20.001Z,11.40
2022-12-03T04:11:06.634Z,12.40
2022-12-03T04:13:34.519Z,12.95
2022-12-03T04:16:02.453Z,12.45
2022-12-03T04:18:45.245Z,12.07
2022-12-03T04:21:31.107Z,11.70
2022-12-03T04:23:58.994Z,12.30
2022-12-03T04:26:45.863Z,11.18
2022-12-03T04:29:15.082Z,12.52
2022-12-03T04:32:00.754Z,11.20
2022-12-03T04:34:46.392Z,14.98
2022-12-03T04:37:14.242Z,12.18
2022-12-03T04:39:42.147Z,11.55
2022-12-03T04:42:11.351Z,11.85
2022-12-03T04:44:39.207Z,10.60
2022-12-03T04:47:09.379Z,10.88
2022-12-03T04:49:39.758Z,9.52
2022-12-03T04:52:07.716Z,10.73
2022-12-03T04:54:35.737Z,9.88
2022-12-03T04:57:03.793Z,10.13
2022-12-03T04:59:33.260Z,11.88
2022-12-03T05:02:01.158Z,11.73
2022-12-03T05:04:29.079Z,11.55
2022-12-03T05:06:56.957Z,10.13
2022-12-03T05:09:24.876Z,10.45
2022-12-03T05:11:52.688Z,10.50
2022-12-03T05:14:20.516Z,12.65
2022-12-03T05:16:49.781Z,10.48
2022-12-03T05:19:17.747Z,10.50
2022-12-03T05:21:44.638Z,11.18
2022-12-03T05:24:12.617Z,9.45
2022-12-03T05:26:40.449Z,9.85
2022-12-03T05:29:08.278Z,13.13
2022-12-03T05:31:36.234Z,10.00
2022-12-03T05:34:05.904Z,11.00
2022-12-03T05:36:33.785Z,9.57
2022-12-03T05:39:01.656Z,10.52
2022-12-03T05:41:47.170Z,10.70
2022-12-03T05:44:20.153Z,10.27
2022-12-03T05:46:48.438Z,11.75
2022-12-03T05:49:17.622Z,10.98
2022-12-03T05:51:45.483Z,10.25
2022-12-03T05:54:13.362Z,10.40
2022-12-03T05:56:41.281Z,10.27
2022-12-03T05:59:09.162Z,10.77
2022-12-03T06:01:37.002Z,10.88
2022-12-03T06:04:05.127Z,10.43
2022-12-03T06:06:34.419Z,10.20
2022-12-03T06:09:02.257Z,10.23
2022-12-03T06:11:30.306Z,12.25
2022-12-03T06:13:58.184Z,12.55
2022-12-03T06:16:26.129Z,10.80
2022-12-03T06:18:54.206Z,11.65
2022-12-03T06:21:22.124Z,12.15
2022-12-03T06:23:51.302Z,10.30
2022-12-03T06:26:19.172Z,10.70
2022-12-03T06:28:49.049Z,11.40
2022-12-03T06:31:16.970Z,11.80
2022-12-03T06:33:44.879Z,11.27
2022-12-03T06:36:13.205Z,11.73
2022-12-03T06:38:41.848Z,10.43
2022-12-03T06:41:11.044Z,10.93
2022-12-03T06:43:38.875Z,12.65
2022-12-03T06:46:06.947Z,10.75
2022-12-03T06:48:34.923Z,11.13
2022-12-03T06:51:02.786Z,11.02
2022-12-03T06:53:30.630Z,11.63
2022-12-03T06:55:58.483Z,12.27
2022-12-03T06:58:27.669Z,10.88
2022-12-03T07:00:55.531Z,11.18
2022-12-03T07:03:23.441Z,11.35
2022-12-03T07:05:51.342Z,10.55
2022-12-03T07:08:19.223Z,10.30
2022-12-03T07:10:47.141Z,11.25
2022-12-03T07:13:14.982Z,12.35
2022-12-03T07:15:44.226Z,11.18
2022-12-03T07:18:12.129Z,9.68
2022-12-03T07:20:40.023Z,10.45
2022-12-03T07:23:07.845Z,11.18
2022-12-03T07:25:35.704Z,10.18
2022-12-03T07:28:03.558Z,11.38
2022-12-03T07:30:31.455Z,12.02
2022-12-03T07:33:00.679Z,13.07
2022-12-03T07:35:28.551Z,10.43
2022-12-03T07:37:56.431Z,9.32
2022-12-03T07:40:24.393Z,10.40
2022-12-03T07:42:52.229Z,10.93
2022-12-03T07:45:20.068Z,10.90
2022-12-03T07:47:47.979Z,10.48
2022-12-03T07:50:17.590Z,12.75
2022-12-03T07:52:45.484Z,11.25
2022-12-03T07:55:13.674Z,10.85
2022-12-03T07:57:41.526Z,12.90
2022-12-03T08:00:10.295Z,11.75
2022-12-03T08:02:38.402Z,10.40
2022-12-03T08:05:06.959Z,11.77
2022-12-03T08:07:36.195Z,8.60
2022-12-03T08:10:04.437Z,12.25
2022-12-03T08:12:40.815Z,11.77
2022-12-03T08:15:13.137Z,10.18
2022-12-03T08:17:42.324Z,9.23
2022-12-03T08:20:14.480Z,13.35
2022-12-03T08:22:44.019Z,11.63
2022-12-03T08:25:15.758Z,11.45
2022-12-03T08:27:45.212Z,9.60
2022-12-03T08:30:14.213Z,11.10
2022-12-03T08:32:42.141Z,9.20
2022-12-03T08:35:13.327Z,12.25
2022-12-03T08:37:41.200Z,15.25
2022-12-03T08:40:25.380Z,16.58
2022-12-03T08:42:53.560Z,15.20
2022-12-03T08:45:39.536Z,12.65
2022-12-03T08:48:33.559Z,16.75
2022-12-03T08:51:20.343Z,11.02
2022-12-03T08:53:49.428Z,13.00
2022-12-03T08:56:23.450Z,16.33
2022-12-03T09:04:47.794Z,10.75
2022-12-03T09:07:15.884Z,14.18
2022-12-03T09:09:43.958Z,11.90
2022-12-03T09:12:13.431Z,13.80
2022-12-03T09:14:42.284Z,9.05
2022-12-03T09:17:10.254Z,13.15
2022-12-03T09:19:44.251Z,13.40
2022-12-03T09:22:15.190Z,12.13
2022-12-03T09:24:43.056Z,12.85
2022-12-03T09:27:10.908Z,26.40
2022-12-03T09:29:40.148Z,41.40
2022-12-03T09:32:08.101Z,34.83
2022-12-03T09:34:36.080Z,26.77
2022-12-03T09:37:03.916Z,30.40
2022-12-03T09:39:31.800Z,26.48
2022-12-03T09:41:59.709Z,35.17
2022-12-03T09:44:29.393Z,29.35
2022-12-03T09:46:59.947Z,40.97
2022-12-03T09:49:27.910Z,34.58
2022-12-03T09:51:56.527Z,32.25
2022-12-03T09:54:25.253Z,26.10
2022-12-03T09:56:53.190Z,29.17
2022-12-03T09:59:21.056Z,30.23
2022-12-03T10:01:49.161Z,34.25
2022-12-03T10:04:18.612Z,26.52
2022-12-03T10:06:46.585Z,30.05
2022-12-03T10:09:17.144Z,30.35
2022-12-03T10:11:45.099Z,42.72
2022-12-03T10:14:13.112Z,38.65
2022-12-03T10:16:41.461Z,41.10
2022-12-03T10:22:00.535Z,44.85
2022-12-03T10:24:30.114Z,45.70
2022-12-03T10:26:58.920Z,42.00
2022-12-03T10:29:33.282Z,38.70
2022-12-03T10:32:15.817Z,44.92
2022-12-03T10:34:44.682Z,41.85
2022-12-03T10:37:18.153Z,38.17
2022-12-03T10:39:56.890Z,31.65
2022-12-03T10:42:25.408Z,33.03
2022-12-03T10:45:14.284Z,33.33
2022-12-03T10:47:42.308Z,34.35
2022-12-03T10:50:16.900Z,37.45
2022-12-03T10:52:46.475Z,34.28
2022-12-03T10:55:14.829Z,29.50
2022-12-03T10:57:45.931Z,33.25
2022-12-03T11:00:18.197Z,26.83
2022-12-03T11:02:50.413Z,25.58
2022-12-03T11:05:41.982Z,28.25
2022-12-03T11:08:18.660Z,24.88
2022-12-03T11:10:47.081Z,26.63
2022-12-03T11:13:44.621Z,22.13
2022-12-03T11:16:36.714Z,20.30
2022-12-03T11:19:05.112Z,28.75
2022-12-03T11:21:33.283Z,26.02
2022-12-03T11:24:17.429Z,22.70
2022-12-03T11:27:18.727Z,24.52
2022-12-03T11:29:57.221Z,25.00
2022-12-03T11:36:31.651Z,21.20
2022-12-03T11:39:09.241Z,28.00
2022-12-03T11:45:27.082Z,18.50
2022-12-03T11:48:03.438Z,26.98
2022-12-03T11:50:39.006Z,21.63
2022-12-03T11:53:15.639Z,17.92
2022-12-03T11:55:48.335Z,16.05
2022-12-03T11:58:23.230Z,16.85
2022-12-03T12:00:52.114Z,16.67
2022-12-03T12:03:29.536Z,19.30
2022-12-03T12:06:03.739Z,16.85
2022-12-03T12:08:32.007Z,18.63
2022-12-03T12:11:01.609Z,14.90
2022-12-03T12:13:55.497Z,18.77
2022-12-03T12:16:45.839Z,14.93
2022-12-03T12:22:37.162Z,14.48
2022-12-03T12:25:37.030Z,13.98
2022-12-03T12:31:12.070Z,21.23
2022-12-03T12:37:03.229Z,16.27
2022-12-03T12:39:32.142Z,20.77
2022-12-03T12:42:05.642Z,13.25
2022-12-03T12:44:35.161Z,17.23
2022-12-03T12:47:07.101Z,17.10
2022-12-03T12:49:36.759Z,17.98
2022-12-03T12:52:07.102Z,13.73
2022-12-03T12:54:35.171Z,14.75
2022-12-03T12:57:03.349Z,16.35
2022-12-03T12:59:31.523Z,19.00
2022-12-03T13:02:04.575Z,13.45
2022-12-03T13:04:39.980Z,13.63
2022-12-03T13:07:09.707Z,15.43
2022-12-03T13:09:37.820Z,18.45
2022-12-03T13:12:08.767Z,14.68
2022-12-03T13:15:20.208Z,13.75
2022-12-03T13:17:49.789Z,15.20
2022-12-03T13:20:18.895Z,15.40
2022-12-03T13:26:38.688Z,12.88
2022-12-03T13:29:13.786Z,14.70
2022-12-03T13:31:44.206Z,13.73
2022-12-03T13:37:02.105Z,15.00
2022-12-03T13:39:32.084Z,14.70
2022-12-03T13:42:19.834Z,15.05
2022-12-03T13:44:49.246Z,14.93
2022-12-03T13:50:43.936Z,18.25
2022-12-03T13:53:17.420Z,12.95
2022-12-03T13:55:46.426Z,16.25
2022-12-03T13:58:14.532Z,13.50
2022-12-03T14:00:42.638Z,14.02
2022-12-03T14:11:33.235Z,13.80
2022-12-03T14:14:01.136Z,16.38
2022-12-03T14:16:31.120Z,15.48
2022-12-03T14:18:59.085Z,14.63
2022-12-03T14:21:32.327Z,20.95
2022-12-03T14:24:00.374Z,15.40
2022-12-03T14:29:11.424Z,17.02
2022-12-03T14:34:27.580Z,19.20
2022-12-03T14:36:55.484Z,18.10
2022-12-03T14:39:26.098Z,17.98
2022-12-03T14:42:12.964Z,13.05
2022-12-03T14:44:40.959Z,15.25
2022-12-03T14:47:08.977Z,14.75
2022-12-03T14:49:36.866Z,15.40
2022-12-03T14:52:08.623Z,13.90
2022-12-03T14:54:41.907Z,19.17
2022-12-03T14:57:27.687Z,15.52
2022-12-03T14:59:55.730Z,15.50
2022-12-03T15:02:35.153Z,16.75
2022-12-03T15:05:03.067Z,13.85
2022-12-03T15:07:31.840Z,14.25
2022-12-03T15:10:00.188Z,15.75
2022-12-03T15:12:29.389Z,18.15
2022-12-03T15:14:57.317Z,15.43
2022-12-03T15:21:25.137Z,18.67
2022-12-03T15:23:57.330Z,15.23
2022-12-03T15:26:25.311Z,16.95
2022-12-03T15:28:54.834Z,16.70
2022-12-03T15:31:22.780Z,14.63
2022-12-03T15:36:58.768Z,16.35
2022-12-03T15:39:26.951Z,14.63
2022-12-03T15:41:55.075Z,18.00
2022-12-03T15:44:24.500Z,16.00
2022-12-03T15:46:52.562Z,13.35
2022-12-03T15:49:23.565Z,16.85
2022-12-03T15:51:51.654Z,15.27
2022-12-03T15:54:19.704Z,15.32
2022-12-03T15:56:50.489Z,13.05
2022-12-03T15:59:20.852Z,16.13
2022-12-03T16:01:50.175Z,14.63
2022-12-03T16:04:30.648Z,13.77
2022-12-03T16:07:00.546Z,17.65
2022-12-03T16:09:39.199Z,14.90
2022-12-03T16:12:07.263Z,14.98
2022-12-03T16:14:35.464Z,15.00
2022-12-03T16:17:16.785Z,18.40
2022-12-03T16:19:44.702Z,15.95
2022-12-03T16:22:13.136Z,16.70
2022-12-03T16:25:27.373Z,15.25
2022-12-03T16:28:32.082Z,12.52
2022-12-03T16:31:04.143Z,14.75
2022-12-03T16:33:34.932Z,13.45
2022-12-03T16:36:36.748Z,18.05
2022-12-03T16:39:33.705Z,14.82
2022-12-03T16:42:25.765Z,15.93
2022-12-03T16:45:36.636Z,19.80
2022-12-03T16:48:05.128Z,16.45
2022-12-03T16:50:37.159Z,19.23
2022-12-03T16:53:07.030Z,17.42
2022-12-03T16:55:35.108Z,14.25
2022-12-03T16:58:03.326Z,22.10
2022-12-03T17:00:31.406Z,13.80
2022-12-03T17:02:59.488Z,20.90
2022-12-03T17:05:27.583Z,15.70
2022-12-03T17:07:57.000Z,18.63
2022-12-03T17:10:25.218Z,15.40
2022-12-03T17:13:10.098Z,17.00
2022-12-03T17:15:38.804Z,14.35
2022-12-03T17:18:07.531Z,19.67
2022-12-03T17:20:36.338Z,14.82
2022-12-03T17:23:05.771Z,17.75
2022-12-03T17:25:34.351Z,15.18
2022-12-03T17:28:02.524Z,19.60
2022-12-03T17:30:30.653Z,15.63
2022-12-03T17:32:58.849Z,15.43
2022-12-03T17:35:28.483Z,15.93
2022-12-03T17:37:56.667Z,14.30
2022-12-03T17:40:26.086Z,15.52
2022-12-03T17:42:54.006Z,15.63
2022-12-03T17:45:21.928Z,15.50
2022-12-03T17:47:49.816Z,16.73
2022-12-03T17:50:17.924Z,14.13
2022-12-03T17:52:45.860Z,14.23
2022-12-03T17:55:22.261Z,16.08
2022-12-03T17:57:57.343Z,15.23
2022-12-03T18:00:25.242Z,16.50
2022-12-03T18:02:53.115Z,14.20
2022-12-03T18:05:22.906Z,15.35
2022-12-03T18:07:50.852Z,15.75
2022-12-03T18:10:18.890Z,15.25
2022-12-03T18:12:46.747Z,15.48
2022-12-03T18:15:16.030Z,17.83
2022-12-03T18:17:43.963Z,19.63
2022-12-03T18:20:12.084Z,14.98
2022-12-03T18:22:39.993Z,17.05
2022-12-03T18:25:08.623Z,14.35
2022-12-03T18:27:36.526Z,17.33
2022-12-03T18:30:04.683Z,15.00
2022-12-03T18:32:33.932Z,16.25
2022-12-03T18:35:01.820Z,18.90
2022-12-03T18:37:30.158Z,15.98
2022-12-03T18:39:58.589Z,23.02
2022-12-03T18:42:26.662Z,15.50
2022-12-03T18:44:55.520Z,16.63
2022-12-03T18:47:24.326Z,16.90
2022-12-03T18:49:54.447Z,18.92
2022-12-03T18:52:23.370Z,17.85
2022-12-03T18:54:51.319Z,16.73
2022-12-03T18:57:19.166Z,17.17
2022-12-03T18:59:47.137Z,15.60
2022-12-03T19:02:38.433Z,16.00
2022-12-03T19:05:06.819Z,16.58
2022-12-03T19:07:34.792Z,19.30
2022-12-03T19:10:03.076Z,16.77
2022-12-03T19:12:31.180Z,16.13
2022-12-03T19:14:59.097Z,18.00
2022-12-03T19:17:27.292Z,20.73
2022-12-03T19:19:55.692Z,15.40
2022-12-03T19:22:25.281Z,16.48
2022-12-03T19:24:53.258Z,15.57
2022-12-03T19:27:21.154Z,16.40
2022-12-03T19:29:49.265Z,16.42
2022-12-03T19:32:17.282Z,19.48
2022-12-03T19:34:45.151Z,16.50
2022-12-03T19:37:13.068Z,16.63
2022-12-03T19:39:43.188Z,18.27
2022-12-03T19:42:11.093Z,16.75
2022-12-03T19:44:39.193Z,20.30
2022-12-03T19:47:07.122Z,19.33
2022-12-03T19:49:35.153Z,18.30
2022-12-03T19:52:03.069Z,18.23
2022-12-03T19:54:30.985Z,19.58
2022-12-03T19:57:00.302Z,20.92
2022-12-03T19:59:28.196Z,16.38
2022-12-03T20:01:56.165Z,15.50
2022-12-03T20:04:24.065Z,18.58
2022-12-03T20:06:51.951Z,16.42
2022-12-03T20:09:21.090Z,15.40
2022-12-03T20:11:51.019Z,17.38
2022-12-03T20:14:20.487Z,20.88
2022-12-03T20:16:48.453Z,17.98
2022-12-03T20:19:17.313Z,19.65
2022-12-03T20:21:45.287Z,19.00
2022-12-03T20:24:15.143Z,15.90
2022-12-03T20:26:43.241Z,18.40
2022-12-03T20:29:11.156Z,19.77
2022-12-03T20:31:40.532Z,21.13
2022-12-03T20:34:08.448Z,17.88
2022-12-03T20:36:37.031Z,18.13
2022-12-03T20:39:06.711Z,18.23
2022-12-03T20:41:35.554Z,18.92
2022-12-03T20:44:03.478Z,18.35
2022-12-03T20:46:32.870Z,19.80
2022-12-03T20:49:02.150Z,21.58
2022-12-03T20:51:30.741Z,22.40
2022-12-03T20:53:59.143Z,18.67
2022-12-03T20:56:27.872Z,20.85
2022-12-03T20:58:56.958Z,18.65
2022-12-03T21:01:26.629Z,23.70
2022-12-03T21:03:55.180Z,18.60
2022-12-03T21:06:24.873Z,24.95
2022-12-03T21:08:53.644Z,18.23
2022-12-03T21:11:22.988Z,18.10
2022-12-03T21:13:50.975Z,17.75
2022-12-03T21:16:34.157Z,18.98
2022-12-03T21:19:07.801Z,21.15
2022-12-03T21:21:37.112Z,21.38
2022-12-03T21:24:05.499Z,21.10
2022-12-03T21:26:33.617Z,19.05
2022-12-03T21:29:01.529Z,19.20
2022-12-03T21:31:31.488Z,22.60
2022-12-03T21:33:59.529Z,20.58
2022-12-03T21:36:27.450Z,19.52
2022-12-03T21:38:56.690Z,19.48
2022-12-03T21:41:24.646Z,23.08
2022-12-03T21:43:52.513Z,16.80
2022-12-03T21:47:12.280Z,20.40
2022-12-03T21:49:08.340Z,19.67
2022-12-03T21:51:36.283Z,18.45
2022-12-03T21:54:05.654Z,20.98
2022-12-03T21:56:33.565Z,20.35
2022-12-03T21:59:01.461Z,20.65
2022-12-03T22:01:29.508Z,17.92
2022-12-03T22:03:57.490Z,20.27
2022-12-03T22:06:25.416Z,18.65
2022-12-03T22:08:53.332Z,20.85
2022-12-03T22:11:23.854Z,26.25
2022-12-03T22:13:51.763Z,25.00
2022-12-03T22:16:20.925Z,25.25
2022-12-03T22:18:49.017Z,26.15
2022-12-03T22:21:17.937Z,20.50
2022-12-03T22:23:45.862Z,25.38
2022-12-03T22:26:14.526Z,27.00
2022-12-03T22:28:44.990Z,33.90
2022-12-03T22:31:13.173Z,19.90
2022-12-03T22:33:41.125Z,21.35
2022-12-03T22:36:14.642Z,19.77
2022-12-03T22:38:46.190Z,19.08
2022-12-03T22:41:14.633Z,22.85
2022-12-03T22:43:43.921Z,18.83
2022-12-03T22:46:12.723Z,19.92
2022-12-03T22:48:41.268Z,22.80
2022-12-03T22:51:11.575Z,24.33
2022-12-03T22:53:39.536Z,23.83
2022-12-03T22:56:07.629Z,24.50
2022-12-03T22:58:35.647Z,21.92
2022-12-03T23:01:04.891Z,29.65
2022-12-03T23:03:32.899Z,19.45
2022-12-03T23:06:00.821Z,27.83
2022-12-03T23:08:28.712Z,20.52
2022-12-03T23:11:00.824Z,24.65
2022-12-03T23:13:28.816Z,20.50
2022-12-03T23:15:56.754Z,21.05
2022-12-03T23:18:26.040Z,23.95
2022-12-03T23:20:55.279Z,26.75
2022-12-03T23:23:23.974Z,26.63
2022-12-03T23:25:57.662Z,22.15
2022-12-03T23:28:25.590Z,24.77
2022-12-03T23:30:53.481Z,22.67
2022-12-03T23:33:21.397Z,23.08
2022-12-03T23:35:50.786Z,22.98
2022-12-03T23:38:18.718Z,26.60
2022-12-03T23:40:48.379Z,23.52
2022-12-03T23:43:16.607Z,23.50
2022-12-03T23:45:44.584Z,21.52
2022-12-03T23:48:12.881Z,22.10
2022-12-03T23:50:41.288Z,22.27
2022-12-03T23:53:10.520Z,23.70
2022-12-03T23:55:40.660Z,24.33
2022-12-03T23:58:08.563Z,21.40
